createdAt,value
2022-10-21T00:01:00.780Z,601.6
2022-10-21T00:02:02.991Z,602
2022-10-21T00:03:05.478Z,602.1
2022-10-21T00:04:07.677Z,601.7
2022-10-21T00:05:09.875Z,601.4
2022-10-21T00:06:12.376Z,601.8
2022-10-21T00:07:14.906Z,602
2022-10-21T00:08:17.130Z,602.3
2022-10-21T00:09:19.620Z,601.8
2022-10-21T00:10:21.832Z,601.9
2022-10-21T00:11:24.308Z,601.7
2022-10-21T00:12:26.772Z,601.6
2022-10-21T00:13:29.262Z,601.8
2022-10-21T00:14:31.730Z,602.1
2022-10-21T00:15:34.200Z,602.2
2022-10-21T00:16:36.682Z,602.1
2022-10-21T00:17:39.173Z,602.3
2022-10-21T00:18:41.381Z,602.7
2022-10-21T00:19:43.847Z,602.7
2022-10-21T00:20:46.347Z,603.1
2022-10-21T00:21:48.860Z,603.7
2022-10-21T00:22:50.809Z,603.8
2022-10-21T00:23:53.023Z,604
2022-10-21T00:24:55.495Z,603.9
2022-10-21T00:25:57.974Z,603.4
2022-10-21T00:27:00.154Z,603.5
2022-10-21T00:28:02.349Z,603.1
2022-10-21T00:29:04.290Z,603.1
2022-10-21T00:30:06.494Z,602.8
2022-10-21T00:31:08.688Z,603
2022-10-21T00:32:11.166Z,603.1
2022-10-21T00:33:13.376Z,602.9
2022-10-21T00:34:15.859Z,603.3
2022-10-21T00:35:18.060Z,603.4
2022-10-21T00:36:20.550Z,603.1
2022-10-21T00:37:23.023Z,603.3
2022-10-21T00:38:25.591Z,603.3
2022-10-21T00:39:27.895Z,603
2022-10-21T00:40:30.378Z,602.9
2022-10-21T00:41:32.584Z,603.2
2022-10-21T00:42:35.479Z,603.1
2022-10-21T00:43:38.096Z,603.5
2022-10-21T00:44:40.026Z,603
2022-10-21T00:45:42.502Z,603.2
2022-10-21T00:46:44.974Z,603.1
2022-10-21T00:48:50.759Z,603.3
2022-10-21T00:49:53.229Z,603.7
2022-10-21T00:50:55.154Z,603.2
2022-10-21T00:51:57.641Z,603
2022-10-21T00:53:00.116Z,602.8
2022-10-21T00:54:02.648Z,602.8
2022-10-21T00:55:05.192Z,602.7
2022-10-21T00:56:08.090Z,602.8
2022-10-21T00:57:10.151Z,603.3
2022-10-21T00:58:12.625Z,603.2
2022-10-21T00:59:15.081Z,603.5
2022-10-21T01:00:17.558Z,603.5
2022-10-21T01:02:24.755Z,603.7
2022-10-21T01:03:27.233Z,603.8
2022-10-21T01:04:29.717Z,603.7
2022-10-21T01:05:31.636Z,603.6
2022-10-21T01:06:34.135Z,603.7
2022-10-21T01:08:42.061Z,603.9
2022-10-21T01:09:44.692Z,603.8
2022-10-21T01:10:47.177Z,603.8
2022-10-21T01:11:49.355Z,604.1
2022-10-21T01:12:51.832Z,604.1
2022-10-21T01:13:54.297Z,604.2
2022-10-21T01:14:57.039Z,604
2022-10-21T01:15:59.000Z,603.3
2022-10-21T01:17:01.226Z,603.8
2022-10-21T01:18:03.698Z,603.7
2022-10-21T01:19:05.905Z,603.5
2022-10-21T01:20:08.103Z,604.1
2022-10-21T01:21:10.580Z,603.9
2022-10-21T01:22:12.784Z,603.8
2022-10-21T01:23:14.998Z,603.6
2022-10-21T01:24:17.203Z,603.4
2022-10-21T01:25:19.716Z,603.4
2022-10-21T01:26:22.201Z,604.2
2022-10-21T01:27:24.673Z,604.5
2022-10-21T01:28:26.850Z,604.6
2022-10-21T01:29:29.342Z,604.2
2022-10-21T01:30:31.812Z,603.9
2022-10-21T01:31:33.755Z,604.1
2022-10-21T01:32:36.220Z,604.4
2022-10-21T01:33:38.431Z,604.7
2022-10-21T01:34:40.623Z,604.9
2022-10-21T01:35:43.110Z,604.5
2022-10-21T01:36:45.577Z,604.4
2022-10-21T01:37:48.308Z,604.4
2022-10-21T01:38:50.550Z,604.7
2022-10-21T01:39:52.759Z,605
2022-10-21T01:40:54.997Z,605.6
2022-10-21T01:41:57.904Z,605.8
2022-10-21T01:43:00.139Z,606.3
2022-10-21T01:44:02.614Z,606.5
2022-10-21T01:45:04.529Z,606.5
2022-10-21T01:46:06.711Z,606.5
2022-10-21T01:47:09.180Z,607.2
2022-10-21T01:48:11.667Z,607.2
2022-10-21T01:49:13.864Z,607.6
2022-10-21T01:50:16.345Z,607.1
2022-10-21T01:51:18.968Z,606.4
2022-10-21T01:52:21.451Z,606.5
2022-10-21T01:53:23.913Z,607.4
2022-10-21T01:54:26.398Z,607.9
2022-10-21T01:55:28.896Z,607.9
2022-10-21T01:56:31.147Z,607.8
2022-10-21T01:57:33.345Z,607.2
2022-10-21T01:58:35.539Z,607.2
2022-10-21T01:59:38.013Z,607.4
2022-10-21T02:00:40.869Z,607.6
2022-10-21T02:01:43.398Z,607.9
2022-10-21T02:02:45.865Z,607.4
2022-10-21T02:03:48.066Z,607.6
2022-10-21T02:04:50.243Z,607.6
2022-10-21T02:05:52.190Z,607.8
2022-10-21T02:06:54.671Z,608
2022-10-21T02:07:57.149Z,608.3
2022-10-21T02:09:00.118Z,608.4
2022-10-21T02:10:02.637Z,608.5
2022-10-21T02:11:04.859Z,608.3
2022-10-21T02:12:07.607Z,608.1
2022-10-21T02:13:10.092Z,608.2
2022-10-21T02:14:12.319Z,608.3
2022-10-21T02:15:14.243Z,608.4
2022-10-21T02:16:16.712Z,608.5
2022-10-21T02:17:19.174Z,608.7
2022-10-21T02:18:21.365Z,608.7
2022-10-21T02:19:23.974Z,608.3
2022-10-21T02:20:26.484Z,608.5
2022-10-21T02:21:28.404Z,608.5
2022-10-21T02:22:30.629Z,608.7
2022-10-21T02:23:32.834Z,609.2
2022-10-21T02:24:35.043Z,609
2022-10-21T02:25:38.179Z,609.1
2022-10-21T02:26:40.091Z,609.2
2022-10-21T02:27:42.349Z,609.2
2022-10-21T02:28:44.574Z,609
2022-10-21T02:29:47.053Z,609.1
2022-10-21T02:30:49.521Z,608.6
2022-10-21T02:31:51.438Z,608.5
2022-10-21T02:32:53.640Z,608.8
2022-10-21T02:33:55.535Z,609.1
2022-10-21T02:34:58.008Z,609.4
2022-10-21T02:36:00.211Z,609.6
2022-10-21T02:37:02.679Z,609.7
2022-10-21T02:38:04.591Z,610.2
2022-10-21T02:39:07.084Z,610.2
2022-10-21T02:40:09.544Z,610.6
2022-10-21T02:41:12.026Z,610.8
2022-10-21T02:42:14.257Z,611.1
2022-10-21T02:43:16.511Z,611.1
2022-10-21T02:44:18.984Z,611.4
2022-10-21T02:45:21.457Z,611.5
2022-10-21T02:46:23.648Z,611.7
2022-10-21T02:47:26.131Z,612.1
2022-10-21T02:48:28.332Z,612.5
2022-10-21T02:49:30.536Z,612.4
2022-10-21T02:50:33.002Z,612.3
2022-10-21T02:51:34.935Z,613
2022-10-21T02:52:37.682Z,613.2
2022-10-21T02:53:40.170Z,613.3
2022-10-21T02:54:42.655Z,613.7
2022-10-21T02:55:44.848Z,613.6
2022-10-21T02:56:47.340Z,613.6
2022-10-21T02:57:49.828Z,613.7
2022-10-21T02:58:52.344Z,613.6
2022-10-21T02:59:54.815Z,613.9
2022-10-21T03:00:57.633Z,613.9
2022-10-21T03:02:00.129Z,613.5
2022-10-21T03:03:02.307Z,613.7
2022-10-21T03:04:04.776Z,613.8
2022-10-21T03:05:07.254Z,613.5
2022-10-21T03:06:09.498Z,613.6
2022-10-21T03:07:11.422Z,613.6
2022-10-21T03:08:13.895Z,612.7
2022-10-21T03:09:16.384Z,613
2022-10-21T03:10:18.303Z,613
2022-10-21T03:11:20.774Z,613
2022-10-21T03:12:23.244Z,612.2
2022-10-21T03:13:25.726Z,612.3
2022-10-21T03:14:28.242Z,612.5
2022-10-21T03:15:30.727Z,612.1
2022-10-21T03:16:33.191Z,612.3
2022-10-21T03:17:35.386Z,612.5
2022-10-21T03:18:37.851Z,612.4
2022-10-21T03:19:39.851Z,612.4
2022-10-21T03:20:42.333Z,612.9
2022-10-21T03:21:44.249Z,612.6
2022-10-21T03:22:46.746Z,612.8
2022-10-21T03:23:49.214Z,612.9
2022-10-21T03:24:51.707Z,612.9
2022-10-21T03:25:54.186Z,613
2022-10-21T03:26:56.659Z,612.5
2022-10-21T03:27:59.142Z,612.7
2022-10-21T03:29:01.338Z,612.7
2022-10-21T03:30:03.579Z,613.1
2022-10-21T03:31:05.831Z,613
2022-10-21T03:32:08.315Z,612.7
2022-10-21T03:33:10.486Z,612.7
2022-10-21T03:34:12.695Z,613.1
2022-10-21T03:35:14.977Z,613
2022-10-21T03:36:17.495Z,613.3
2022-10-21T03:37:19.696Z,613.8
2022-10-21T03:38:21.917Z,613.8
2022-10-21T03:39:24.383Z,613.7
2022-10-21T03:40:26.893Z,614.1
2022-10-21T03:41:29.356Z,613.7
2022-10-21T03:42:31.832Z,614
2022-10-21T03:43:34.300Z,613.8
2022-10-21T03:44:36.800Z,613.8
2022-10-21T03:45:39.307Z,613.4
2022-10-21T03:46:41.237Z,613.7
2022-10-21T03:47:43.713Z,613.9
2022-10-21T03:48:45.636Z,614
2022-10-21T03:49:47.831Z,614.2
2022-10-21T03:50:50.295Z,614.8
2022-10-21T03:51:52.766Z,614.8
2022-10-21T03:52:54.966Z,615
2022-10-21T03:53:57.453Z,614.4
2022-10-21T03:54:59.934Z,615.1
2022-10-21T03:56:02.124Z,615.3
2022-10-21T03:57:04.588Z,615.7
2022-10-21T03:58:06.783Z,616
2022-10-21T03:59:08.994Z,616.4
2022-10-21T04:01:15.652Z,616.8
2022-10-21T04:02:18.212Z,617.3
2022-10-21T04:03:20.385Z,617.4
2022-10-21T04:04:22.912Z,617.8
2022-10-21T04:05:25.103Z,618.2
2022-10-21T04:06:27.295Z,618.5
2022-10-21T04:07:29.766Z,618.3
2022-10-21T04:08:32.212Z,618
2022-10-21T04:09:34.701Z,618.5
2022-10-21T04:10:37.721Z,618.3
2022-10-21T04:11:40.203Z,618.5
2022-10-21T04:12:43.009Z,618.7
2022-10-21T04:13:45.207Z,618.7
2022-10-21T04:14:47.678Z,619.2
2022-10-21T04:15:50.168Z,619.5
2022-10-21T04:17:57.694Z,619.3
2022-10-21T04:19:00.179Z,619.6
2022-10-21T04:20:02.657Z,620
2022-10-21T04:21:04.589Z,620.1
2022-10-21T04:22:06.817Z,620
2022-10-21T04:23:09.282Z,620.2
2022-10-21T04:24:11.752Z,619.9
2022-10-21T04:25:13.950Z,619.9
2022-10-21T04:26:16.121Z,619.9
2022-10-21T04:27:18.333Z,620.1
2022-10-21T04:28:20.533Z,619.8
2022-10-21T04:29:23.000Z,620
2022-10-21T04:30:25.492Z,619.8
2022-10-21T04:32:32.691Z,619.9
2022-10-21T04:33:35.229Z,620.1
2022-10-21T04:34:36.888Z,620
2022-10-21T04:35:39.077Z,620.2
2022-10-21T04:36:41.743Z,620.1
2022-10-21T04:37:44.211Z,620.9
2022-10-21T04:38:46.712Z,620.6
2022-10-21T04:39:49.198Z,620.9
2022-10-21T04:40:51.377Z,621.2
2022-10-21T04:41:53.846Z,621.5
2022-10-21T04:42:56.045Z,622
2022-10-21T04:43:58.212Z,622.2
2022-10-21T04:45:00.402Z,622.8
2022-10-21T04:46:02.299Z,622.9
2022-10-21T04:47:04.211Z,623.3
2022-10-21T04:48:06.690Z,623.9
2022-10-21T04:49:08.955Z,624.1
2022-10-21T04:50:11.147Z,623.8
2022-10-21T04:51:13.622Z,623.7
2022-10-21T04:52:15.816Z,623.8
2022-10-21T04:53:18.013Z,623.8
2022-10-21T04:54:20.506Z,623.9
2022-10-21T04:55:22.698Z,624
2022-10-21T04:56:25.164Z,624
2022-10-21T04:57:27.641Z,624.1
2022-10-21T04:58:30.146Z,624.7
2022-10-21T04:59:32.349Z,624.6
2022-10-21T05:00:35.221Z,624.4
2022-10-21T05:01:37.437Z,624.1
2022-10-21T05:02:42.060Z,624.5
2022-10-21T05:03:44.708Z,624.2
2022-10-21T05:04:47.245Z,624.2
2022-10-21T05:05:49.712Z,624.2
2022-10-21T05:06:51.646Z,624.5
2022-10-21T05:07:53.567Z,624.9
2022-10-21T05:08:56.237Z,624.9
2022-10-21T05:09:58.192Z,625.6
2022-10-21T05:11:00.380Z,626
2022-10-21T05:12:02.851Z,626.1
2022-10-21T05:13:05.321Z,626.4
2022-10-21T05:14:07.805Z,626.9
2022-10-21T05:15:09.998Z,627
2022-10-21T05:16:12.464Z,626.7
2022-10-21T05:17:14.658Z,627.3
2022-10-21T05:18:16.865Z,627.6
2022-10-21T05:19:19.355Z,627.8
2022-10-21T05:20:21.603Z,628.2
2022-10-21T05:21:23.882Z,628.3
2022-10-21T05:22:26.385Z,628.1
2022-10-21T05:23:28.849Z,628.1
2022-10-21T05:24:31.057Z,627.6
2022-10-21T05:26:38.522Z,627.7
2022-10-21T05:27:40.419Z,627.9
2022-10-21T05:28:42.907Z,628
2022-10-21T05:29:45.127Z,628
2022-10-21T05:30:47.119Z,627.8
2022-10-21T05:31:49.576Z,627.2
2022-10-21T05:32:52.059Z,627.1
2022-10-21T05:33:54.528Z,626.9
2022-10-21T05:34:57.016Z,626.5
2022-10-21T05:35:59.301Z,627.2
2022-10-21T05:37:01.777Z,626.8
2022-10-21T05:38:04.004Z,627
2022-10-21T05:39:05.926Z,627
2022-10-21T05:40:08.424Z,627
2022-10-21T05:41:10.619Z,626.8
2022-10-21T05:42:12.796Z,626.5
2022-10-21T05:43:15.010Z,626.9
2022-10-21T05:44:17.483Z,626.6
2022-10-21T05:45:19.688Z,626.5
2022-10-21T05:46:21.606Z,626.6
2022-10-21T05:47:24.078Z,626.6
2022-10-21T05:48:26.272Z,626.8
2022-10-21T05:49:28.746Z,626.9
2022-10-21T05:50:31.236Z,626.8
2022-10-21T05:51:33.792Z,627.3
2022-10-21T05:52:36.572Z,627.1
2022-10-21T05:53:38.946Z,627.3
2022-10-21T05:54:41.119Z,627.3
2022-10-21T05:55:43.612Z,627.5
2022-10-21T05:56:45.800Z,627.6
2022-10-21T05:57:48.499Z,628
2022-10-21T05:58:50.710Z,628
2022-10-21T05:59:52.352Z,628.2
2022-10-21T06:00:54.868Z,627.7
2022-10-21T06:01:56.831Z,627
2022-10-21T06:02:58.748Z,626.4
2022-10-21T06:04:00.955Z,626.3
2022-10-21T06:05:02.856Z,626.5
2022-10-21T06:06:05.395Z,627
2022-10-21T06:07:07.922Z,626.9
2022-10-21T06:08:10.395Z,627
2022-10-21T06:09:12.734Z,626.9
2022-10-21T06:10:15.290Z,627
2022-10-21T06:11:17.482Z,627.1
2022-10-21T06:12:19.675Z,626.5
2022-10-21T06:13:22.153Z,626.4
2022-10-21T06:14:24.634Z,626.6
2022-10-21T06:15:26.800Z,626.3
2022-10-21T06:16:29.317Z,626.2
2022-10-21T06:17:31.800Z,626.2
2022-10-21T06:18:33.721Z,626.6
2022-10-21T06:19:35.920Z,626.5
2022-10-21T06:20:37.841Z,626.2
2022-10-21T06:21:40.372Z,626.5
2022-10-21T06:22:42.911Z,626
2022-10-21T06:23:45.145Z,625.6
2022-10-21T06:24:47.365Z,625.2
2022-10-21T06:25:49.572Z,624.9
2022-10-21T06:26:52.047Z,625
2022-10-21T06:27:54.256Z,624.9
2022-10-21T06:28:55.933Z,624.9
2022-10-21T06:29:57.573Z,625.1
2022-10-21T06:30:59.491Z,625.1
2022-10-21T06:32:01.983Z,625.6
2022-10-21T06:33:04.456Z,625.9
2022-10-21T06:34:06.936Z,626.4
2022-10-21T06:35:09.180Z,626.3
2022-10-21T06:36:11.380Z,626.1
2022-10-21T06:37:13.903Z,626
2022-10-21T06:38:16.150Z,626.2
2022-10-21T06:39:18.613Z,626
2022-10-21T06:40:20.822Z,626.1
2022-10-21T06:41:23.303Z,626.5
2022-10-21T06:42:25.807Z,627
2022-10-21T06:43:28.362Z,627.2
2022-10-21T06:44:30.835Z,627.3
2022-10-21T06:45:33.031Z,627.5
2022-10-21T06:46:34.950Z,627.8
2022-10-21T06:47:38.958Z,628
2022-10-21T06:48:41.572Z,627.3
2022-10-21T06:49:43.768Z,628.2
2022-10-21T06:50:45.688Z,628.5
2022-10-21T06:51:47.894Z,629.2
2022-10-21T06:52:50.388Z,629.5
2022-10-21T06:53:52.658Z,629.2
2022-10-21T06:54:55.476Z,629.2
2022-10-21T06:55:57.955Z,628.8
2022-10-21T06:57:00.447Z,628.4
2022-10-21T06:58:02.387Z,628.4
2022-10-21T06:59:05.202Z,628.3
2022-10-21T07:00:07.422Z,628.3
2022-10-21T07:02:14.625Z,629.1
2022-10-21T07:03:16.849Z,629
2022-10-21T07:04:18.761Z,629.3
2022-10-21T07:05:21.235Z,629.2
2022-10-21T07:06:24.251Z,629.5
2022-10-21T07:07:26.492Z,629.5
2022-10-21T07:09:34.390Z,629.8
2022-10-21T07:10:36.914Z,630.3
2022-10-21T07:11:39.387Z,630
2022-10-21T07:12:41.870Z,629.6
2022-10-21T07:13:44.364Z,629.5
2022-10-21T07:14:46.849Z,629.3
2022-10-21T07:15:49.551Z,629.5
2022-10-21T07:16:52.065Z,630.1
2022-10-21T07:17:54.543Z,629.6
2022-10-21T07:18:57.057Z,629.4
2022-10-21T07:19:58.991Z,629.1
2022-10-21T07:21:01.465Z,629.2
2022-10-21T07:22:03.949Z,629
2022-10-21T07:23:06.152Z,629.4
2022-10-21T07:24:08.086Z,629.8
2022-10-21T07:25:10.660Z,629.8
2022-10-21T07:26:12.872Z,630
2022-10-21T07:27:15.343Z,630.3
2022-10-21T07:28:17.551Z,631
2022-10-21T07:29:20.046Z,630.9
2022-10-21T07:30:21.957Z,631.3
2022-10-21T07:31:24.437Z,631.1
2022-10-21T07:32:26.390Z,631.3
2022-10-21T07:33:28.859Z,631.5
2022-10-21T07:34:31.084Z,631.2
2022-10-21T07:35:33.559Z,631
2022-10-21T07:36:36.044Z,631
2022-10-21T07:37:40.407Z,630.9
2022-10-21T07:38:43.057Z,630.9
2022-10-21T07:39:44.977Z,631.3
2022-10-21T07:40:47.566Z,631.2
2022-10-21T07:41:50.034Z,631.4
2022-10-21T07:42:52.515Z,632
2022-10-21T07:43:55.015Z,632
2022-10-21T07:44:57.495Z,631.9
2022-10-21T07:47:05.003Z,631.9
2022-10-21T07:48:07.227Z,631.7
2022-10-21T07:49:09.162Z,631.6
2022-10-21T07:50:11.389Z,631.7
2022-10-21T07:51:13.319Z,632.1
2022-10-21T07:52:16.589Z,632.1
2022-10-21T07:53:21.211Z,632.4
2022-10-21T07:54:23.403Z,632.5
2022-10-21T07:55:25.908Z,632.4
2022-10-21T07:56:28.470Z,632.5
2022-10-21T07:57:30.940Z,632.6
2022-10-21T07:58:33.413Z,632.3
2022-10-21T07:59:35.904Z,632.8
2022-10-21T08:00:38.529Z,632.1
2022-10-21T08:01:41.931Z,632.4
2022-10-21T08:02:44.464Z,632.1
2022-10-21T08:03:46.647Z,632
2022-10-21T08:04:48.823Z,631.8
2022-10-21T08:05:50.741Z,632.2
2022-10-21T08:06:53.233Z,632.4
2022-10-21T08:07:55.426Z,632.8
2022-10-21T08:08:58.005Z,632.8
2022-10-21T08:10:00.223Z,632.4
2022-10-21T08:11:03.479Z,632.5
2022-10-21T08:12:05.867Z,632.5
2022-10-21T08:13:07.808Z,632.6
2022-10-21T08:14:10.292Z,632.5
2022-10-21T08:15:12.760Z,632.8
2022-10-21T08:16:15.263Z,632.6
2022-10-21T08:17:17.474Z,631.7
2022-10-21T08:18:19.685Z,632.3
2022-10-21T08:19:21.590Z,632.6
2022-10-21T08:20:24.095Z,632.4
2022-10-21T08:21:26.312Z,632.6
2022-10-21T08:22:28.504Z,632.9
2022-10-21T08:23:30.991Z,632.9
2022-10-21T08:24:33.174Z,632.8
2022-10-21T08:25:35.382Z,632.5
2022-10-21T08:26:37.857Z,632.6
2022-10-21T08:27:40.119Z,632.5
2022-10-21T08:28:42.059Z,632.2
2022-10-21T08:29:44.547Z,632.4
2022-10-21T08:30:47.034Z,632.4
2022-10-21T08:31:49.527Z,632
2022-10-21T08:32:51.735Z,632.4
2022-10-21T08:33:54.241Z,632.3
2022-10-21T08:34:56.718Z,632
2022-10-21T08:35:58.411Z,632.5
2022-10-21T08:37:00.634Z,632.2
2022-10-21T08:38:03.194Z,632.1
2022-10-21T08:39:05.710Z,632.2
2022-10-21T08:40:07.918Z,632.3
2022-10-21T08:41:10.393Z,632.1
2022-10-21T08:42:12.047Z,632.2
2022-10-21T08:43:14.614Z,631.9
2022-10-21T08:44:17.094Z,631.9
2022-10-21T08:45:19.559Z,632
2022-10-21T08:46:22.039Z,631.9
2022-10-21T08:47:24.233Z,631.9
2022-10-21T08:48:26.763Z,632.2
2022-10-21T08:50:34.240Z,632
2022-10-21T08:51:36.742Z,631.6
2022-10-21T08:52:38.686Z,631.4
2022-10-21T08:53:40.878Z,631.1
2022-10-21T08:54:43.111Z,631.4
2022-10-21T08:55:45.612Z,631.3
2022-10-21T08:56:47.922Z,631.3
2022-10-21T08:57:50.406Z,631.4
2022-10-21T08:58:53.019Z,631.3
2022-10-21T08:59:55.235Z,631.1
2022-10-21T09:00:57.721Z,631.2
2022-10-21T09:01:59.937Z,631
2022-10-21T09:03:02.412Z,631.2
2022-10-21T09:04:04.399Z,631
2022-10-21T09:05:06.876Z,631.2
2022-10-21T09:06:09.095Z,631.1
2022-10-21T09:07:11.010Z,630.8
2022-10-21T09:08:13.244Z,630.9
2022-10-21T09:09:16.115Z,630.7
2022-10-21T09:10:19.030Z,630.5
2022-10-21T09:11:20.945Z,630.4
2022-10-21T09:12:23.150Z,630.5
2022-10-21T09:13:25.086Z,630.1
2022-10-21T09:14:27.978Z,630.1
2022-10-21T09:15:30.217Z,630.1
2022-10-21T09:16:32.707Z,629.5
2022-10-21T09:17:34.646Z,629.7
2022-10-21T09:18:37.132Z,629.4
2022-10-21T09:19:39.633Z,629.1
2022-10-21T09:20:42.316Z,629.3
2022-10-21T09:21:44.800Z,629.1
2022-10-21T09:22:47.934Z,629.1
2022-10-21T09:23:50.450Z,629.1
2022-10-21T09:24:52.659Z,628.9
2022-10-21T09:25:54.593Z,628.7
2022-10-21T09:26:56.808Z,628.4
2022-10-21T09:28:01.446Z,628.3
2022-10-21T09:29:03.610Z,627.9
2022-10-21T09:30:06.192Z,628.4
2022-10-21T09:31:08.388Z,628
2022-10-21T09:32:10.575Z,627.4
2022-10-21T09:33:13.060Z,626.8
2022-10-21T09:34:15.374Z,626.3
2022-10-21T09:35:17.859Z,626
2022-10-21T09:36:19.775Z,625.5
2022-10-21T09:37:22.270Z,624.9
2022-10-21T09:38:24.185Z,624.3
2022-10-21T09:39:26.714Z,624
2022-10-21T09:40:29.189Z,623.7
2022-10-21T09:41:31.146Z,622.6
2022-10-21T09:43:38.622Z,620.4
2022-10-21T09:44:41.111Z,619.1
2022-10-21T09:45:43.406Z,617.4
2022-10-21T09:46:45.945Z,617
2022-10-21T09:47:47.873Z,616.7
2022-10-21T09:51:00.093Z,617.5
2022-10-21T09:52:02.016Z,617.3
2022-10-21T09:53:04.248Z,616.9
2022-10-21T09:54:06.461Z,615.9
2022-10-21T09:55:08.969Z,615.6
2022-10-21T09:56:11.437Z,615.1
2022-10-21T09:57:13.938Z,615.6
2022-10-21T09:58:16.421Z,616.9
2022-10-21T09:59:18.327Z,617.1
2022-10-21T10:00:19.979Z,617.7
2022-10-21T10:01:22.553Z,615.8
2022-10-21T10:02:24.845Z,615.1
2022-10-21T10:03:27.060Z,615.3
2022-10-21T10:04:29.262Z,616.2
2022-10-21T10:05:31.474Z,616.4
2022-10-21T10:06:33.952Z,615.6
2022-10-21T10:07:36.142Z,615
2022-10-21T10:08:39.403Z,615.3
2022-10-21T10:09:41.370Z,615.6
2022-10-21T10:10:43.874Z,615.6
2022-10-21T10:11:46.068Z,615.2
2022-10-21T10:12:48.013Z,615.4
2022-10-21T10:13:49.948Z,615.6
2022-10-21T10:14:52.135Z,615.2
2022-10-21T10:15:53.774Z,614.6
2022-10-21T10:16:56.063Z,614.6
2022-10-21T10:17:58.538Z,614.3
2022-10-21T10:19:00.470Z,614.3
2022-10-21T10:20:02.952Z,613.9
2022-10-21T10:21:05.456Z,613.7
2022-10-21T10:23:12.921Z,612.9
2022-10-21T10:24:14.360Z,612.8
2022-10-21T10:25:16.560Z,612.6
2022-10-21T10:26:18.234Z,612.4
2022-10-21T10:27:20.705Z,612.8
2022-10-21T10:28:22.627Z,612.5
2022-10-21T10:29:24.549Z,612.8
2022-10-21T10:30:26.202Z,612
2022-10-21T10:31:28.398Z,612.1
2022-10-21T10:32:31.055Z,612.2
2022-10-21T10:33:33.592Z,611.8
2022-10-21T10:34:36.066Z,611.9
2022-10-21T10:35:38.545Z,611.6
2022-10-21T10:36:41.022Z,611.7
2022-10-21T10:37:44.554Z,611.6
2022-10-21T10:38:47.024Z,611.9
2022-10-21T10:39:49.519Z,612.6
2022-10-21T10:41:58.964Z,614.1
2022-10-21T10:43:01.430Z,614.4
2022-10-21T10:44:03.917Z,615.1
2022-10-21T10:45:05.871Z,614.6
2022-10-21T10:46:08.094Z,615.1
2022-10-21T10:47:10.292Z,614.9
2022-10-21T10:48:12.963Z,615.1
2022-10-21T10:49:15.561Z,616.1
2022-10-21T10:50:17.817Z,616.1
2022-10-21T10:51:20.029Z,615.2
2022-10-21T10:52:22.581Z,613.9
2022-10-21T10:53:25.141Z,613.7
2022-10-21T10:54:27.330Z,614
2022-10-21T10:55:29.239Z,612.2
2022-10-21T10:56:31.443Z,611.3
2022-10-21T10:58:38.738Z,612.8
2022-10-21T10:59:40.670Z,612.8
2022-10-21T11:00:43.734Z,612.4
2022-10-21T11:01:45.714Z,611.3
2022-10-21T11:02:47.896Z,612.1
2022-10-21T11:03:50.799Z,612
2022-10-21T11:05:55.824Z,612
2022-10-21T11:06:58.054Z,612.2
2022-10-21T11:08:00.527Z,611.9
2022-10-21T11:09:03.186Z,611.1
2022-10-21T11:10:05.406Z,610.7
2022-10-21T11:11:07.346Z,609.8
2022-10-21T11:12:09.547Z,608.5
2022-10-21T11:13:12.062Z,609.6
2022-10-21T11:15:20.140Z,609.1
2022-10-21T11:16:22.326Z,608.8
2022-10-21T11:17:24.809Z,608.7
2022-10-21T11:18:27.221Z,607.7
2022-10-21T11:19:29.931Z,607.7
2022-10-21T11:20:32.407Z,606.3
2022-10-21T11:21:34.374Z,605.9
2022-10-21T11:22:36.583Z,606.5
2022-10-21T11:23:38.778Z,606.9
2022-10-21T11:24:41.028Z,607.6
2022-10-21T11:25:42.934Z,607
2022-10-21T11:26:45.141Z,607.1
2022-10-21T11:27:47.247Z,608
2022-10-21T11:28:49.737Z,608
2022-10-21T11:29:52.218Z,607.9
2022-10-21T11:30:54.248Z,608.3
2022-10-21T11:33:00.613Z,608
2022-10-21T11:34:02.809Z,607.5
2022-10-21T11:35:05.747Z,608.1
2022-10-21T11:36:08.235Z,607.5
2022-10-21T11:37:10.714Z,606.8
2022-10-21T11:38:12.373Z,607.4
2022-10-21T11:40:21.036Z,608
2022-10-21T11:42:28.522Z,608.3
2022-10-21T11:43:30.429Z,608.1
2022-10-21T11:44:32.638Z,607.9
2022-10-21T11:45:34.552Z,607.8
2022-10-21T11:46:37.138Z,608.2
2022-10-21T11:47:39.609Z,608.5
2022-10-21T11:48:41.531Z,608.1
2022-10-21T11:49:44.010Z,608.7
2022-10-21T11:50:46.972Z,609.1
2022-10-21T11:51:49.440Z,609.5
2022-10-21T11:52:51.374Z,609.5
2022-10-21T11:53:53.853Z,609.8
2022-10-21T11:56:01.320Z,609.6
2022-10-21T11:57:03.525Z,609.4
2022-10-21T11:58:05.723Z,609.4
2022-10-21T11:59:08.193Z,609.2
2022-10-21T12:00:10.671Z,609.9
2022-10-21T12:01:13.157Z,609.7
2022-10-21T12:02:16.191Z,609.6
2022-10-21T12:03:18.715Z,609.8
2022-10-21T12:04:20.685Z,609.5
2022-10-21T12:05:22.890Z,609.3
2022-10-21T12:06:25.546Z,609.4
2022-10-21T12:07:28.024Z,609
2022-10-21T12:08:30.295Z,609.6
2022-10-21T12:09:32.794Z,609.3
2022-10-21T12:10:35.295Z,609.6
2022-10-21T12:11:37.811Z,609.1
2022-10-21T12:12:42.322Z,609.6
2022-10-21T12:13:44.675Z,609.1
2022-10-21T12:14:46.593Z,609.4
2022-10-21T12:15:49.086Z,609
2022-10-21T12:16:51.585Z,608.7
2022-10-21T12:17:53.955Z,608.9
2022-10-21T12:18:56.458Z,609.2
2022-10-21T12:19:58.697Z,609.2
2022-10-21T12:21:00.903Z,609.4
2022-10-21T12:22:03.830Z,609.7
2022-10-21T12:23:06.023Z,610.2
2022-10-21T12:24:08.222Z,609.9
2022-10-21T12:25:10.440Z,609.9
2022-10-21T12:26:12.911Z,610
2022-10-21T12:27:15.107Z,609.5
2022-10-21T12:28:17.048Z,609.7
2022-10-21T12:29:19.529Z,610
2022-10-21T12:31:26.724Z,610.3
2022-10-21T12:32:29.202Z,610.3
2022-10-21T12:33:31.245Z,610
2022-10-21T12:34:33.431Z,610.2
2022-10-21T12:35:35.710Z,609.6
2022-10-21T12:36:37.932Z,609.6
2022-10-21T12:37:41.795Z,609.8
2022-10-21T12:38:44.001Z,609.7
2022-10-21T12:39:46.222Z,609.9
2022-10-21T12:40:48.697Z,609.9
2022-10-21T12:41:51.174Z,610
2022-10-21T12:42:53.084Z,609.7
2022-10-21T12:43:55.560Z,610
2022-10-21T12:44:57.483Z,609.7
2022-10-21T12:45:59.973Z,609.7
2022-10-21T12:47:02.453Z,609.4
2022-10-21T12:48:04.947Z,609.3
2022-10-21T12:49:07.508Z,609.3
2022-10-21T12:50:09.739Z,609.6
2022-10-21T12:51:12.235Z,609.3
2022-10-21T12:52:14.434Z,608.9
2022-10-21T12:53:17.024Z,608.8
2022-10-21T12:54:18.975Z,609
2022-10-21T12:55:20.682Z,609.1
2022-10-21T12:56:22.877Z,609
2022-10-21T12:57:25.090Z,609.5
2022-10-21T12:58:27.573Z,609.2
2022-10-21T12:59:30.055Z,609.7
2022-10-21T13:00:32.538Z,609.9
2022-10-21T13:01:35.090Z,610
2022-10-21T13:02:38.421Z,609.4
2022-10-21T13:03:40.523Z,609.5
2022-10-21T13:04:43.014Z,609.5
2022-10-21T13:05:45.508Z,609.4
2022-10-21T13:06:48.076Z,609
2022-10-21T13:07:50.550Z,609.3
2022-10-21T13:08:53.690Z,609
2022-10-21T13:09:55.650Z,609.2
2022-10-21T13:10:57.908Z,609.3
2022-10-21T13:12:00.117Z,609.2
2022-10-21T13:13:02.647Z,609.7
2022-10-21T13:14:04.854Z,609.6
2022-10-21T13:15:07.064Z,609.9
2022-10-21T13:16:09.542Z,609.8
2022-10-21T13:17:12.027Z,610
2022-10-21T13:18:14.512Z,609.7
2022-10-21T13:19:16.426Z,609.7
2022-10-21T13:20:18.921Z,609.2
2022-10-21T13:21:23.018Z,609.4
2022-10-21T13:22:25.488Z,609.5
2022-10-21T13:23:27.695Z,609.3
2022-10-21T13:24:29.971Z,609.1
2022-10-21T13:25:32.183Z,609.2
2022-10-21T13:26:34.403Z,609
2022-10-21T13:27:37.107Z,609.2
2022-10-21T13:28:39.310Z,609.1
2022-10-21T13:29:41.513Z,609.2
2022-10-21T13:30:43.987Z,609.1
2022-10-21T13:31:47.660Z,608.9
2022-10-21T13:32:50.236Z,609
2022-10-21T13:33:53.174Z,609.2
2022-10-21T13:34:56.281Z,609
2022-10-21T13:35:58.851Z,609
2022-10-21T13:37:01.403Z,608.6
2022-10-21T13:38:03.333Z,608.5
2022-10-21T13:39:06.610Z,608.5
2022-10-21T13:40:09.107Z,608.3
2022-10-21T13:41:11.296Z,608.7
2022-10-21T13:43:18.512Z,608.1
2022-10-21T13:44:20.983Z,608.3
2022-10-21T13:45:22.961Z,608.2
2022-10-21T13:46:25.424Z,607.9
2022-10-21T13:47:27.332Z,608.5
2022-10-21T13:48:29.261Z,607.9
2022-10-21T13:49:31.467Z,608
2022-10-21T13:50:33.373Z,607.4
2022-10-21T13:51:35.872Z,607.6
2022-10-21T13:52:38.360Z,607.4
2022-10-21T13:53:40.284Z,607.6
2022-10-21T13:54:43.590Z,607.5
2022-10-21T13:55:46.179Z,607.6
2022-10-21T13:56:48.655Z,608
2022-10-21T13:57:51.127Z,608